createdAt,value
2019-05-16T00:00:58.617Z,40.36
2019-05-16T00:03:31.674Z,40.01
2019-05-16T00:06:05.456Z,39.80
2019-05-16T00:08:39.146Z,39.80
2019-05-16T00:11:13.519Z,39.89
2019-05-16T00:13:48.777Z,39.61
2019-05-16T00:16:22.808Z,39.43
2019-05-16T00:18:58.278Z,39.70
2019-05-16T00:21:31.898Z,39.70
2019-05-16T00:24:08.057Z,39.75
2019-05-16T00:26:41.846Z,39.75
2019-05-16T00:29:15.542Z,39.90
2019-05-16T00:31:49.259Z,39.60
2019-05-16T00:34:22.949Z,39.90
2019-05-16T00:36:58.222Z,39.59
2019-05-16T00:39:32.118Z,39.59
2019-05-16T00:42:05.818Z,40.64
2019-05-16T00:44:39.537Z,40.50
2019-05-16T00:47:13.573Z,40.63
2019-05-16T00:49:48.041Z,40.82
2019-05-16T00:52:21.860Z,41.08
2019-05-16T00:54:57.842Z,41.08
2019-05-16T00:57:31.127Z,40.81
2019-05-16T01:00:08.188Z,40.76
2019-05-16T01:02:41.643Z,40.95
2019-05-16T01:05:15.429Z,40.95
2019-05-16T01:07:49.505Z,40.63
2019-05-16T01:10:23.205Z,41.86
2019-05-16T01:12:58.464Z,41.86
2019-05-16T01:15:32.279Z,41.04
2019-05-16T01:18:08.087Z,40.76
2019-05-16T01:20:41.457Z,40.50
2019-05-16T01:23:15.164Z,41.24
2019-05-16T01:25:48.849Z,41.24
2019-05-16T01:28:22.553Z,41.13
2019-05-16T01:30:58.019Z,41.79
2019-05-16T01:33:31.704Z,41.97
2019-05-16T01:36:05.979Z,41.97
2019-05-16T01:38:40.233Z,42.67
2019-05-16T01:41:13.933Z,42.67
2019-05-16T01:43:48.298Z,44.19
2019-05-16T01:46:22.209Z,43.57
2019-05-16T01:48:57.817Z,42.88
2019-05-16T01:51:31.707Z,46.18
2019-05-16T01:54:05.767Z,44.94
2019-05-16T01:56:39.498Z,44.94
2019-05-16T01:59:13.784Z,44.73
2019-05-16T02:01:48.399Z,43.50
2019-05-16T02:04:22.860Z,45.13
2019-05-16T02:06:58.497Z,42.97
2019-05-16T02:09:32.150Z,43.05
2019-05-16T02:12:10.407Z,42.60
2019-05-16T02:14:41.268Z,42.83
2019-05-16T02:17:14.999Z,42.83
2019-05-16T02:19:48.742Z,42.07
2019-05-16T02:22:22.434Z,42.56
2019-05-16T02:24:58.347Z,42.25
2019-05-16T02:27:31.513Z,42.50
2019-05-16T02:30:05.291Z,43.38
2019-05-16T02:32:41.730Z,43.38
2019-05-16T02:35:14.402Z,43.09
2019-05-16T02:37:48.112Z,42.93
2019-05-16T02:40:22.928Z,42.94
2019-05-16T02:42:56.620Z,43.29
2019-05-16T02:45:32.509Z,43.99
2019-05-16T02:48:05.701Z,43.99
2019-05-16T02:50:41.497Z,43.76
2019-05-16T02:53:14.820Z,42.95
2019-05-16T02:55:51.361Z,42.95
2019-05-16T02:58:23.946Z,43.41
2019-05-16T03:00:57.622Z,43.26
2019-05-16T03:03:31.762Z,43.26
2019-05-16T03:06:05.865Z,44.24
2019-05-16T03:08:41.220Z,44.24
2019-05-16T03:11:15.156Z,43.55
2019-05-16T03:13:51.370Z,45.62
2019-05-16T03:16:24.766Z,44.95
2019-05-16T03:19:01.210Z,44.95
2019-05-16T03:21:34.107Z,46.48
2019-05-16T03:24:10.991Z,44.40
2019-05-16T03:26:43.252Z,44.05
2019-05-16T03:29:16.956Z,44.52
2019-05-16T03:31:54.207Z,44.52
2019-05-16T03:34:26.757Z,44.76
2019-05-16T03:37:04.093Z,43.42
2019-05-16T03:39:35.916Z,44.07
2019-05-16T03:42:12.469Z,44.09
2019-05-16T03:44:45.030Z,44.22
2019-05-16T03:47:21.682Z,44.22
2019-05-16T03:49:54.137Z,44.50
2019-05-16T03:52:30.789Z,44.50
2019-05-16T03:55:04.874Z,44.79
2019-05-16T03:57:41.434Z,45.63
2019-05-16T04:00:14.499Z,45.63
2019-05-16T04:02:52.046Z,45.48
2019-05-16T04:05:23.601Z,45.44
2019-05-16T04:08:13.828Z,45.44
2019-05-16T04:10:32.877Z,45.36
2019-05-16T04:13:06.566Z,45.84
2019-05-16T04:15:40.884Z,46.14
2019-05-16T04:18:14.822Z,45.11
2019-05-16T04:20:51.866Z,44.88
2019-05-16T04:23:23.950Z,45.20
2019-05-16T04:26:00.438Z,45.98
2019-05-16T04:28:33.044Z,45.72
2019-05-16T04:31:06.814Z,45.04
2019-05-16T04:33:41.477Z,44.52
2019-05-16T04:36:15.717Z,45.28
2019-05-16T04:38:51.196Z,45.26
2019-05-16T04:41:25.244Z,45.26
2019-05-16T04:44:01.535Z,45.36
2019-05-16T04:46:34.348Z,45.36
2019-05-16T04:49:11.260Z,45.73
2019-05-16T04:51:43.460Z,46.33
2019-05-16T04:54:17.194Z,46.33
2019-05-16T04:56:51.471Z,46.43
2019-05-16T04:59:25.375Z,45.36
2019-05-16T05:02:02.170Z,45.36
2019-05-16T05:04:34.501Z,46.99
2019-05-16T05:07:10.878Z,47.48
2019-05-16T05:09:43.601Z,47.48
2019-05-16T05:12:17.302Z,46.18
2019-05-16T05:14:51.251Z,47.15
2019-05-16T05:17:25.084Z,47.17
2019-05-16T05:20:01.165Z,46.03
2019-05-16T05:22:34.187Z,46.03
2019-05-16T05:25:10.629Z,47.15
2019-05-16T05:27:43.680Z,46.10
2019-05-16T05:30:19.627Z,46.06
2019-05-16T05:32:52.782Z,45.75
2019-05-16T05:35:26.501Z,45.75
2019-05-16T05:38:00.470Z,47.17
2019-05-16T05:40:34.300Z,47.17
2019-05-16T05:43:10.453Z,45.69
2019-05-16T05:45:43.397Z,46.31
2019-05-16T05:48:17.102Z,46.48
2019-05-16T05:50:51.194Z,46.48
2019-05-16T05:53:24.947Z,47.01
2019-05-16T05:56:00.369Z,46.83
2019-05-16T05:58:34.038Z,45.74
2019-05-16T06:01:07.787Z,45.32
2019-05-16T06:03:41.474Z,45.32
2019-05-16T06:06:15.210Z,47.91
2019-05-16T06:08:50.218Z,46.96
2019-05-16T06:11:24.204Z,47.12
2019-05-16T06:14:00.315Z,47.12
2019-05-16T06:16:33.314Z,45.44
2019-05-16T06:19:07.020Z,45.44
2019-05-16T06:21:44.818Z,45.42
2019-05-16T06:24:16.491Z,47.08
2019-05-16T06:26:50.591Z,46.79
2019-05-16T06:29:24.393Z,46.10
2019-05-16T06:32:00.093Z,45.45
2019-05-16T06:34:33.656Z,45.45
2019-05-16T06:37:09.690Z,47.58
2019-05-16T06:39:45.412Z,47.12
2019-05-16T06:42:20.461Z,45.73
2019-05-16T06:44:53.710Z,45.73
2019-05-16T06:47:27.424Z,45.34
2019-05-16T06:50:01.118Z,44.80
2019-05-16T06:52:34.822Z,44.80
2019-05-16T06:55:10.094Z,45.03
2019-05-16T06:57:44.299Z,45.36
2019-05-16T07:00:20.920Z,45.15
2019-05-16T07:02:55.051Z,44.01
2019-05-16T07:05:29.971Z,45.97
2019-05-16T07:08:03.725Z,45.13
2019-05-16T07:10:39.662Z,45.13
2019-05-16T07:13:13.898Z,45.28
2019-05-16T07:15:49.775Z,44.34
2019-05-16T07:18:23.093Z,44.65
2019-05-16T07:20:56.789Z,44.46
2019-05-16T07:23:30.483Z,44.05
2019-05-16T07:26:04.193Z,45.63
2019-05-16T07:28:40.426Z,45.63
2019-05-16T07:31:18.409Z,43.28
2019-05-16T07:33:50.244Z,44.62
2019-05-16T07:36:24.115Z,43.96
2019-05-16T07:38:59.781Z,45.19
2019-05-16T07:41:33.213Z,43.67
2019-05-16T07:44:06.893Z,43.05
2019-05-16T07:46:44.481Z,43.77
2019-05-16T07:49:16.014Z,44.88
2019-05-16T07:51:49.920Z,44.88
2019-05-16T07:54:23.726Z,44.29
2019-05-16T07:57:09.697Z,44.59
2019-05-16T07:59:32.893Z,45.15
2019-05-16T08:02:06.580Z,45.04
2019-05-16T08:04:40.613Z,46.65
2019-05-16T08:07:14.453Z,43.56
2019-05-16T08:09:50.315Z,42.41
2019-05-16T08:12:26.374Z,42.41
2019-05-16T08:15:00.729Z,42.54
2019-05-16T08:17:34.394Z,42.54
2019-05-16T08:20:10.863Z,43.13
2019-05-16T08:22:43.864Z,42.23
2019-05-16T08:25:20.121Z,42.82
2019-05-16T08:27:52.978Z,40.85
2019-05-16T08:30:26.660Z,41.18
2019-05-16T08:33:02.515Z,41.18
2019-05-16T08:35:35.837Z,41.12
2019-05-16T08:38:13.295Z,41.37
2019-05-16T08:41:04.783Z,41.91
2019-05-16T08:43:21.715Z,42.00
2019-05-16T08:45:55.893Z,42.00
2019-05-16T08:48:31.818Z,42.58
2019-05-16T08:51:05.082Z,41.90
2019-05-16T08:53:43.248Z,42.34
2019-05-16T08:56:14.196Z,40.54
2019-05-16T08:58:53.338Z,41.36
2019-05-16T09:01:23.326Z,42.23
2019-05-16T09:03:57.023Z,42.23
2019-05-16T09:06:32.036Z,39.89
2019-05-16T09:09:26.482Z,39.89
2019-05-16T09:11:45.140Z,39.47
2019-05-16T09:14:17.539Z,41.78
2019-05-16T09:16:51.206Z,40.29
2019-05-16T09:19:27.375Z,40.27
2019-05-16T09:22:00.316Z,40.57
2019-05-16T09:24:34.010Z,39.24
2019-05-16T09:27:12.058Z,39.26
2019-05-16T09:29:43.145Z,39.26
2019-05-16T09:32:21.201Z,40.02
2019-05-16T09:34:52.248Z,40.02
2019-05-16T09:37:26.780Z,39.16
2019-05-16T09:40:00.605Z,39.86
2019-05-16T09:42:37.034Z,39.86
2019-05-16T09:45:10.152Z,38.37
2019-05-16T09:47:43.835Z,39.50
2019-05-16T09:50:17.585Z,39.54
2019-05-16T09:52:51.342Z,41.78
2019-05-16T09:55:26.819Z,41.73
2019-05-16T09:58:00.662Z,41.73
2019-05-16T10:00:37.174Z,42.35
2019-05-16T10:03:09.810Z,41.06
2019-05-16T10:05:43.580Z,42.60
2019-05-16T10:08:17.578Z,43.30
2019-05-16T10:10:51.329Z,42.48
2019-05-16T10:13:27.505Z,42.48
2019-05-16T10:16:00.370Z,41.54
2019-05-16T10:18:34.073Z,43.91
2019-05-16T10:21:08.287Z,41.88
2019-05-16T10:23:42.066Z,41.88
2019-05-16T10:26:17.278Z,41.83
2019-05-16T10:28:51.183Z,42.15
2019-05-16T10:31:38.537Z,42.32
2019-05-16T10:34:00.272Z,42.32
2019-05-16T10:36:33.959Z,42.91
2019-05-16T10:39:07.963Z,42.91
2019-05-16T10:41:41.727Z,41.05
2019-05-16T10:44:17.480Z,42.73
2019-05-16T10:46:51.127Z,43.41
2019-05-16T10:49:34.268Z,43.41
2019-05-16T10:52:00.229Z,44.72
2019-05-16T10:54:33.947Z,43.92
2019-05-16T10:57:08.295Z,47.12
2019-05-16T11:00:09.094Z,47.12
2019-05-16T11:02:18.698Z,43.16
2019-05-16T11:04:59.953Z,43.16
2019-05-16T11:07:29.795Z,43.94
2019-05-16T11:10:06.894Z,42.68
2019-05-16T11:12:50.099Z,42.68
2019-05-16T11:15:17.174Z,42.16
2019-05-16T11:17:51.137Z,43.24
2019-05-16T11:20:26.746Z,43.24
2019-05-16T11:23:00.236Z,41.90
2019-05-16T11:25:36.518Z,41.90
2019-05-16T11:28:09.336Z,42.55
2019-05-16T11:30:43.051Z,42.38
2019-05-16T11:33:17.353Z,42.38
2019-05-16T11:35:51.343Z,42.41
2019-05-16T11:38:25.050Z,42.41
2019-05-16T11:40:58.762Z,42.79
2019-05-16T11:43:32.454Z,44.52
2019-05-16T11:46:06.220Z,43.19
2019-05-16T11:48:39.925Z,43.93
2019-05-16T11:51:13.960Z,43.93
2019-05-16T11:53:47.836Z,42.98
2019-05-16T11:56:21.566Z,42.74
2019-05-16T11:58:57.053Z,43.21
2019-05-16T12:01:30.681Z,43.21
2019-05-16T12:04:04.372Z,43.32
2019-05-16T12:06:38.073Z,42.80
2019-05-16T12:09:12.976Z,42.80
2019-05-16T12:11:46.682Z,43.81
2019-05-16T12:14:20.410Z,43.27
2019-05-16T12:16:56.810Z,42.64
2019-05-16T12:19:34.668Z,42.25
2019-05-16T12:22:07.026Z,43.96
2019-05-16T12:24:41.497Z,43.96
2019-05-16T12:27:17.183Z,45.10
2019-05-16T12:29:55.334Z,45.10
2019-05-16T12:32:27.667Z,44.30
2019-05-16T12:35:01.537Z,45.26
2019-05-16T12:37:37.278Z,45.26
2019-05-16T12:40:10.647Z,48.67
2019-05-16T12:42:44.362Z,47.97
2019-05-16T12:45:18.081Z,47.97
2019-05-16T12:47:51.805Z,47.80
2019-05-16T12:50:28.414Z,47.84
2019-05-16T12:53:02.556Z,49.15
2019-05-16T12:55:36.828Z,49.15
2019-05-16T12:58:13.125Z,50.68
2019-05-16T13:00:54.000Z,50.68
2019-05-16T13:03:21.475Z,49.42
2019-05-16T13:05:57.097Z,49.78
2019-05-16T13:08:30.585Z,50.30
2019-05-16T13:11:06.816Z,50.02
2019-05-16T13:13:39.675Z,50.17
2019-05-16T13:16:13.443Z,50.17
2019-05-16T13:18:47.546Z,52.32
2019-05-16T13:21:22.836Z,52.32
2019-05-16T13:23:57.536Z,53.23
2019-05-16T13:26:31.490Z,53.23
2019-05-16T13:29:07.252Z,54.53
2019-05-16T13:31:40.593Z,54.53
2019-05-16T13:34:17.675Z,56.01
2019-05-16T13:36:49.697Z,55.19
2019-05-16T13:39:23.391Z,57.20
2019-05-16T13:41:57.104Z,57.29
2019-05-16T13:44:30.795Z,57.17
2019-05-16T13:47:04.506Z,58.01
2019-05-16T13:49:38.891Z,58.01
2019-05-16T13:52:13.508Z,59.87
2019-05-16T13:54:47.610Z,56.91
2019-05-16T13:57:21.322Z,61.40
2019-05-16T13:59:56.778Z,61.40
2019-05-16T14:02:30.611Z,60.58
2019-05-16T14:05:07.586Z,60.81
2019-05-16T14:07:41.450Z,61.11
2019-05-16T14:10:17.866Z,60.59
2019-05-16T14:12:50.602Z,60.59
2019-05-16T14:15:26.923Z,60.36
2019-05-16T14:17:59.694Z,60.54
2019-05-16T14:20:33.412Z,59.25
2019-05-16T14:23:08.452Z,58.69
2019-05-16T14:25:42.961Z,56.75
2019-05-16T14:28:17.554Z,55.66
2019-05-16T14:30:51.550Z,55.66
2019-05-16T14:33:27.480Z,55.18
2019-05-16T14:36:00.689Z,55.18
2019-05-16T14:38:34.396Z,55.55
2019-05-16T14:41:08.382Z,55.87
2019-05-16T14:43:42.180Z,56.32
2019-05-16T14:46:18.310Z,56.32
2019-05-16T14:48:51.368Z,56.55
2019-05-16T14:51:29.370Z,57.50
2019-05-16T14:54:00.480Z,57.50
2019-05-16T14:56:34.363Z,56.56
2019-05-16T14:59:08.381Z,62.73
2019-05-16T15:01:42.327Z,62.73
2019-05-16T15:04:16.048Z,63.00
2019-05-16T15:06:49.769Z,66.52
2019-05-16T15:09:23.969Z,66.52
2019-05-16T15:11:58.272Z,64.00
2019-05-16T15:14:32.058Z,64.98
2019-05-16T15:17:07.035Z,66.09
2019-05-16T15:19:40.959Z,66.09
2019-05-16T15:22:16.795Z,66.50
2019-05-16T15:24:50.103Z,66.50
2019-05-16T15:27:23.802Z,64.70
2019-05-16T15:29:57.842Z,64.70
2019-05-16T15:32:32.001Z,63.88
2019-05-16T15:35:07.416Z,65.06
2019-05-16T15:37:41.361Z,65.20
2019-05-16T15:40:17.485Z,66.38
2019-05-16T15:42:50.443Z,65.88
2019-05-16T15:45:37.932Z,66.78
2019-05-16T15:48:09.393Z,65.38
2019-05-16T15:50:43.099Z,65.38
2019-05-16T15:53:17.680Z,64.53
2019-05-16T15:55:51.499Z,65.13
2019-05-16T15:58:26.713Z,65.24
2019-05-16T16:01:00.703Z,64.33
2019-05-16T16:03:34.424Z,64.33
2019-05-16T16:06:08.172Z,66.32
2019-05-16T16:08:41.989Z,64.55
2019-05-16T16:11:17.165Z,64.35
2019-05-16T16:13:51.192Z,64.35
2019-05-16T16:16:26.779Z,66.56
2019-05-16T16:19:01.218Z,66.25
2019-05-16T16:21:34.941Z,65.59
2019-05-16T16:24:09.272Z,66.27
2019-05-16T16:26:43.359Z,66.04
2019-05-16T16:29:17.115Z,66.04
2019-05-16T16:31:50.794Z,68.48
2019-05-16T16:34:26.647Z,68.48
2019-05-16T16:36:59.948Z,65.67
2019-05-16T16:39:34.673Z,65.67
2019-05-16T16:42:08.414Z,67.02
2019-05-16T16:44:42.215Z,67.02
2019-05-16T16:47:17.649Z,67.78
2019-05-16T16:49:51.608Z,65.76
2019-05-16T16:52:27.371Z,67.05
2019-05-16T16:55:00.726Z,67.05
2019-05-16T16:57:34.438Z,68.25
2019-05-16T17:00:08.967Z,65.76
2019-05-16T17:02:58.362Z,67.44
2019-05-16T17:05:18.097Z,67.44
2019-05-16T17:07:51.825Z,67.30
2019-05-16T17:10:27.528Z,66.69
2019-05-16T17:13:02.161Z,67.26
2019-05-16T17:15:36.706Z,66.84
2019-05-16T17:18:10.834Z,66.22
2019-05-16T17:20:44.568Z,68.31
2019-05-16T17:23:18.256Z,68.31
2019-05-16T17:25:52.003Z,69.00
2019-05-16T17:28:25.744Z,68.70
2019-05-16T17:30:59.580Z,68.70
2019-05-16T17:33:33.308Z,67.64
2019-05-16T17:36:09.219Z,66.58
2019-05-16T17:38:42.533Z,66.77
2019-05-16T17:41:16.864Z,66.77
2019-05-16T17:43:51.029Z,65.79
2019-05-16T17:46:34.799Z,66.27
2019-05-16T17:49:00.205Z,66.27
2019-05-16T17:51:33.940Z,64.51
2019-05-16T17:54:07.654Z,64.51
2019-05-16T17:56:41.371Z,65.73
2019-05-16T17:59:17.015Z,65.73
2019-05-16T18:01:50.620Z,66.12
2019-05-16T18:04:26.519Z,67.00
2019-05-16T18:06:59.884Z,65.62
2019-05-16T18:09:33.627Z,65.14
2019-05-16T18:12:07.351Z,67.13
2019-05-16T18:14:41.073Z,67.13
2019-05-16T18:17:14.880Z,65.29
2019-05-16T18:19:48.590Z,65.42
2019-05-16T18:22:22.361Z,65.50
2019-05-16T18:24:57.865Z,65.07
2019-05-16T18:27:31.742Z,65.07
2019-05-16T18:30:08.340Z,65.37
2019-05-16T18:32:42.098Z,67.07
2019-05-16T18:35:16.862Z,67.69
2019-05-16T18:37:50.785Z,67.69
2019-05-16T18:40:27.012Z,68.12
2019-05-16T18:42:59.995Z,68.08
2019-05-16T18:45:33.731Z,68.08
2019-05-16T18:48:07.746Z,69.84
2019-05-16T18:50:41.753Z,69.84
2019-05-16T18:53:17.664Z,69.33
2019-05-16T18:55:50.883Z,69.10
2019-05-16T18:58:26.824Z,70.23
2019-05-16T19:01:00.044Z,68.76
2019-05-16T19:03:33.765Z,69.05
2019-05-16T19:06:07.855Z,69.05
2019-05-16T19:08:42.367Z,68.93
2019-05-16T19:11:17.518Z,68.93
2019-05-16T19:13:51.534Z,70.93
2019-05-16T19:16:26.265Z,69.29
2019-05-16T19:19:00.165Z,71.05
2019-05-16T19:21:33.949Z,70.34
2019-05-16T19:24:07.696Z,70.34
2019-05-16T19:26:41.523Z,68.33
2019-05-16T19:29:17.157Z,71.18
2019-05-16T19:31:50.752Z,71.18
2019-05-16T19:34:24.556Z,70.16
2019-05-16T19:36:58.931Z,70.28
2019-05-16T19:39:32.657Z,70.28
2019-05-16T19:42:06.541Z,70.70
2019-05-16T19:44:40.421Z,70.70
2019-05-16T19:47:14.184Z,71.94
2019-05-16T19:49:47.919Z,72.27
2019-05-16T19:52:21.651Z,72.27
2019-05-16T19:54:56.458Z,73.14
2019-05-16T19:57:30.373Z,72.98
2019-05-16T20:00:08.349Z,71.61
2019-05-16T20:02:42.086Z,71.61
2019-05-16T20:05:17.034Z,72.33
2019-05-16T20:07:51.049Z,72.85
2019-05-16T20:10:26.969Z,72.85
2019-05-16T20:13:00.582Z,71.39
2019-05-16T20:15:36.393Z,71.68
2019-05-16T20:18:09.708Z,71.68
2019-05-16T20:20:43.425Z,72.46
2019-05-16T20:23:18.640Z,71.82
2019-05-16T20:25:52.762Z,71.82
2019-05-16T20:28:26.779Z,72.89
2019-05-16T20:31:00.704Z,72.09
2019-05-16T20:33:34.620Z,71.81
2019-05-16T20:36:09.453Z,71.00
2019-05-16T20:38:43.490Z,71.00
2019-05-16T20:41:17.288Z,71.42
2019-05-16T20:43:51.010Z,71.50
2019-05-16T20:46:24.745Z,71.48
2019-05-16T20:48:59.071Z,71.48
2019-05-16T20:51:32.831Z,70.47
2019-05-16T20:54:07.115Z,70.47
2019-05-16T20:56:40.926Z,70.35
2019-05-16T20:59:14.634Z,70.76
2019-05-16T21:01:49.216Z,70.70
2019-05-16T21:04:23.269Z,70.70
2019-05-16T21:07:04.614Z,69.69
2019-05-16T21:09:32.371Z,69.40
2019-05-16T21:12:08.085Z,69.40
2019-05-16T21:14:41.502Z,70.90
2019-05-16T21:17:17.270Z,70.90
2019-05-16T21:19:51.763Z,69.48
2019-05-16T21:22:27.370Z,70.06
2019-05-16T21:25:00.859Z,70.06
2019-05-16T21:27:37.541Z,70.48
2019-05-16T21:30:09.989Z,70.32
2019-05-16T21:32:43.712Z,70.32
2019-05-16T21:35:17.412Z,69.42
2019-05-16T21:37:51.125Z,69.66
2019-05-16T21:40:26.536Z,68.62
2019-05-16T21:43:00.439Z,69.07
2019-05-16T21:45:34.155Z,67.95
2019-05-16T21:48:07.869Z,69.67
2019-05-16T21:50:41.578Z,69.67
2019-05-16T21:53:17.574Z,68.13
2019-05-16T21:55:50.697Z,68.62
2019-05-16T21:58:26.686Z,68.62
2019-05-16T22:00:59.823Z,69.01
2019-05-16T22:03:33.544Z,69.09
2019-05-16T22:06:07.975Z,69.74
2019-05-16T22:08:42.055Z,69.74
2019-05-16T22:11:17.236Z,68.99
2019-05-16T22:13:51.188Z,68.20
2019-05-16T22:16:24.928Z,69.45
2019-05-16T22:18:59.218Z,68.80
2019-05-16T22:21:32.939Z,69.57
2019-05-16T22:24:06.773Z,69.57
2019-05-16T22:26:40.528Z,68.25
2019-05-16T22:29:14.252Z,68.25
2019-05-16T22:31:47.946Z,67.88
2019-05-16T22:34:21.674Z,69.47
2019-05-16T22:36:57.266Z,69.00
2019-05-16T22:39:30.884Z,69.00
2019-05-16T22:42:06.406Z,69.37
2019-05-16T22:44:40.002Z,68.81
2019-05-16T22:47:13.701Z,69.16
2019-05-16T22:49:47.676Z,69.16
2019-05-16T22:52:21.425Z,69.31
2019-05-16T22:54:56.711Z,69.31
2019-05-16T22:57:30.539Z,69.44
2019-05-16T23:00:07.696Z,69.09
2019-05-16T23:02:41.416Z,68.67
2019-05-16T23:05:16.841Z,68.95
2019-05-16T23:08:02.151Z,69.58
2019-05-16T23:10:28.478Z,69.81
2019-05-16T23:13:02.165Z,68.39
2019-05-16T23:15:35.903Z,68.39
2019-05-16T23:18:09.623Z,69.89
2019-05-16T23:20:43.353Z,69.89
2019-05-16T23:23:17.516Z,69.76
2019-05-16T23:25:51.333Z,68.67
2019-05-16T23:28:27.195Z,68.67
2019-05-16T23:31:00.800Z,69.62
2019-05-16T23:33:36.590Z,69.49
2019-05-16T23:36:09.959Z,69.49
2019-05-16T23:38:43.673Z,69.75
2019-05-16T23:41:17.471Z,69.66
2019-05-16T23:43:51.180Z,69.66
2019-05-16T23:46:24.878Z,70.61
2019-05-16T23:48:58.597Z,70.89
2019-05-16T23:51:32.308Z,69.51
2019-05-16T23:54:06.645Z,68.98
2019-05-16T23:56:40.692Z,68.98
